Hinkley, CA (92347)

2:41 PM PST on December 10, 2016 (GMT -0800)
Silver Lakes / Helendale | | Change Station

Elev 2438 ft 34.76 °N, 117.33 °W | Updated 7 minutes ago

Partly Cloudy
Partly Cloudy
70.2 °F
Feels Like 77 °F
N
4.0
Wind Variable Wind from West
Gusts 12.0 mph

Today
High -- | Low -- °F
--% Chance of Precip.
Yesterday
High -- | Low -- °F
Precip. -- in
Pressure 29.95 in
Visibility 10.0 miles
Clouds Clear
Heat Index 77 °F
Dew Point 52 °F
Humidity 52%
Rainfall 0.00 in
Snow Depth Not available.
6:46 AM 4:37 PM
Waxing Gibbous, 87% visible
METAR KDAG 102150Z AUTO 25025G33KT 10SM CLR 24/08 A2998 RMK AO2 PK WND 25039/2053 SLP142 T02390083
Pressure 29.95 in
Visibility 10.0 miles
Clouds Clear
Heat Index 77 °F
Dew Point 52 °F
Humidity 52%
Rainfall 0.00 in
Snow Depth Not available.
6:46 AM 4:37 PM
Waxing Gibbous, 87% visible
METAR KDAG 102150Z AUTO 25025G33KT 10SM CLR 24/08 A2998 RMK AO2 PK WND 25039/2053 SLP142 T02390083

10-Day Weather Forecast

Almanac

Astronomy

Dec. 10, 2016 Rise Set
Actual Time
Civil Twilight
Nautical Twilight
Astronomical Twilight
Moon
Length of Visible Light
Length of Day
Tomorrow will be .
, % of the Moon is Illuminated

Today's Extremes

State Highs State Lows

Community

WunderPhotos

Upload Photos

1,956,671 photos uploaded!

WunderBlog® & News

Nearby

Air Quality

  Air Quality AQ Index Pollutant
Not available.

Snow Depth

Station Depth Elevation

Earthquake Activity

City Distance Mag. Time & Date
Minimum magnitude displayed is 2.5.

Coastal Water Temperatures

Place Temperature

Stations

Nearby Weather Stations

Station Location Temp. Windchill Dew Point Humidity Wind Precip. Elev Updated Type
                   

Watches & Warnings

There are currently no watches in effect.